Skip Navigation LinksHome page > Weather > Current weather Skip Navigation Links

Current Weather

Chicago O'Hare Intl, Chicago

For information only: do not use for flight planning or navigation.
Latest weather
Observation time Thursday, July 31, 2014 5:51 PM CDT
Local time Thursday, July 31, 2014 6:39 PM CDT
Flight conditions Visual Meteorological Conditions
Winds
Wind direction West-Northwest (290°)
Wind speed 13 mph
Visibility 10 mi.
Sky condition
Ceiling unlimited
Cloud layer few clouds 6,000 ft.
Cloud layer scattered clouds 25,000 ft.
Temperature 82°F
Dewpoint 53°F
Altimeter 30.01 in.Hg
Derived measurements
Relative humidity 37%
Heat index 82°F
Density altitude 1568 ft.
Sea-level pressure 30.00 in.Hg
Remarks
Automated weather observing station with precipitation discriminator.
METAR KORD 312251Z 29011KT 10SM FEW060 SCT250 28/12 A3001 RMK AO2 SLP158 T02780117

Settings

Location code

InnerDrive.Weather 4.0.5294.0 Release CLR 4.0.30319.34014
Copyright ©2014 Inner Drive Technology. All rights reserved. Portions Copyright ©1986-2014 David Braverman.

Find weather

Site navigation


Skip Navigation Links

Place info

Page info

PayPal - The safer, easier way to pay online!

Return home.

Copyright ©2014 Inner Drive Technology. Purveyors of fine, hand-crafted computer software. Page printed 2014-07-31T23:39:22 UTC.